createdAt,value
2019-06-07T00:01:26.981Z,23.10
2019-06-07T00:03:55.484Z,26.23
2019-06-07T00:06:25.806Z,26.33
2019-06-07T00:08:54.120Z,27.97
2019-06-07T00:11:22.619Z,24.70
2019-06-07T00:13:51.048Z,26.63
2019-06-07T00:16:22.884Z,28.30
2019-06-07T00:18:49.699Z,24.83
2019-06-07T00:21:20.465Z,25.50
2019-06-07T00:23:48.336Z,25.33
2019-06-07T00:26:18.188Z,21.70
2019-06-07T00:28:46.967Z,24.63
2019-06-07T00:31:21.899Z,24.93
2019-06-07T00:33:45.599Z,24.33
2019-06-07T00:36:14.723Z,24.33
2019-06-07T00:38:44.224Z,22.73
2019-06-07T00:41:14.623Z,25.23
2019-06-07T00:43:42.911Z,24.53
2019-06-07T00:46:14.345Z,29.03
2019-06-07T00:48:41.538Z,27.37
2019-06-07T00:51:11.541Z,28.93
2019-06-07T00:53:40.214Z,28.63
2019-06-07T00:56:08.728Z,25.80
2019-06-07T00:58:37.230Z,29.70
2019-06-07T01:01:05.755Z,26.73
2019-06-07T01:03:34.198Z,23.80
2019-06-07T01:06:02.665Z,23.73
2019-06-07T01:08:31.128Z,23.83
2019-06-07T01:10:59.564Z,23.13
2019-06-07T01:13:28.074Z,24.33
2019-06-07T01:15:56.549Z,22.83
2019-06-07T01:18:37.428Z,23.77
2019-06-07T01:20:55.233Z,22.63
2019-06-07T01:23:59.880Z,23.37
2019-06-07T01:25:53.907Z,25.97
2019-06-07T01:28:26.252Z,23.60
2019-06-07T01:30:52.910Z,22.87
2019-06-07T01:33:23.482Z,26.90
2019-06-07T01:35:51.652Z,26.90
2019-06-07T01:38:22.885Z,31.97
2019-06-07T01:40:50.310Z,26.37
2019-06-07T01:43:19.556Z,27.03
2019-06-07T01:45:48.939Z,28.33
2019-06-07T01:48:20.999Z,29.53
2019-06-07T01:50:47.591Z,25.93
2019-06-07T01:53:18.735Z,24.60
2019-06-07T01:55:46.756Z,22.93
2019-06-07T01:58:15.189Z,21.73
2019-06-07T02:00:44.295Z,24.00
2019-06-07T02:03:13.006Z,26.30
2019-06-07T02:05:41.563Z,26.47
2019-06-07T02:08:10.034Z,25.90
2019-06-07T02:10:38.494Z,29.73
2019-06-07T02:13:06.929Z,23.70
2019-06-07T02:15:36.681Z,24.47
2019-06-07T02:18:05.573Z,21.70
2019-06-07T02:20:34.651Z,25.03
2019-06-07T02:23:03.339Z,24.70
2019-06-07T02:25:42.574Z,29.17
2019-06-07T02:28:26.773Z,24.33
2019-06-07T02:30:44.017Z,27.77
2019-06-07T02:33:02.588Z,26.50
2019-06-07T02:35:38.825Z,25.73
2019-06-07T02:38:01.648Z,24.47
2019-06-07T02:40:36.035Z,28.77
2019-06-07T02:43:00.333Z,27.90
2019-06-07T02:45:32.243Z,26.50
2019-06-07T02:47:59.043Z,27.90
2019-06-07T02:50:29.214Z,23.87
2019-06-07T02:52:57.668Z,24.93
2019-06-07T02:55:29.677Z,24.03
2019-06-07T02:57:56.296Z,28.80
2019-06-07T03:01:00.338Z,29.37
2019-06-07T03:03:14.228Z,27.37
2019-06-07T03:05:44.620Z,23.60
2019-06-07T03:08:17.622Z,25.47
2019-06-07T03:10:48.882Z,30.03
2019-06-07T03:13:20.328Z,31.13
2019-06-07T03:15:51.794Z,31.03
2019-06-07T03:18:41.550Z,31.37
2019-06-07T03:21:11.377Z,29.40
2019-06-07T03:23:41.017Z,25.87
2019-06-07T03:26:09.478Z,26.97
2019-06-07T03:28:39.566Z,23.80
2019-06-07T03:31:08.215Z,24.50
2019-06-07T03:33:44.458Z,25.03
2019-06-07T03:36:22.743Z,21.63
2019-06-07T03:38:39.635Z,24.60
2019-06-07T03:41:07.295Z,21.50
2019-06-07T03:43:38.657Z,21.37
2019-06-07T03:46:05.927Z,21.47
2019-06-07T03:48:38.759Z,24.10
2019-06-07T03:51:20.314Z,25.57
2019-06-07T03:53:36.525Z,26.43
2019-06-07T03:56:05.373Z,26.67
2019-06-07T03:58:41.145Z,25.03
2019-06-07T04:01:04.071Z,22.10
2019-06-07T04:03:42.096Z,24.67
2019-06-07T04:06:02.702Z,26.33
2019-06-07T04:08:33.537Z,30.53
2019-06-07T04:11:01.343Z,27.07
2019-06-07T04:13:34.051Z,29.90
2019-06-07T04:16:00.024Z,28.33
2019-06-07T04:18:28.490Z,29.83
2019-06-07T04:20:56.958Z,26.80
2019-06-07T04:23:29.991Z,28.27
2019-06-07T04:25:55.682Z,27.70
2019-06-07T04:29:13.873Z,23.30
2019-06-07T04:30:54.316Z,23.77
2019-06-07T04:33:22.746Z,24.47
2019-06-07T04:35:51.683Z,24.77
2019-06-07T04:38:20.117Z,23.47
2019-06-07T04:40:48.835Z,31.17
2019-06-07T04:43:17.351Z,27.07
2019-06-07T04:45:51.307Z,29.57
2019-06-07T04:48:21.472Z,30.70
2019-06-07T04:50:50.878Z,28.03
2019-06-07T04:53:19.406Z,33.33
2019-06-07T04:55:47.863Z,26.83
2019-06-07T04:58:16.341Z,28.83
2019-06-07T05:00:53.972Z,28.83
2019-06-07T05:03:14.971Z,27.27
2019-06-07T05:05:43.932Z,27.97
2019-06-07T05:08:27.490Z,27.93
2019-06-07T05:10:44.002Z,29.30
2019-06-07T05:13:12.708Z,24.97
2019-06-07T05:15:42.364Z,24.57
2019-06-07T05:18:11.088Z,28.13
2019-06-07T05:20:41.508Z,27.70
2019-06-07T05:23:09.720Z,30.47
2019-06-07T05:25:42.222Z,27.07
2019-06-07T05:28:09.047Z,27.47
2019-06-07T05:33:10.318Z,26.47
2019-06-07T05:35:41.773Z,28.97
2019-06-07T05:38:09.226Z,30.03
2019-06-07T05:40:42.950Z,29.73
2019-06-07T05:43:25.072Z,26.03
2019-06-07T05:45:53.570Z,26.93
2019-06-07T05:48:22.292Z,25.83
2019-06-07T05:50:56.760Z,25.50
2019-06-07T05:53:21.132Z,27.13
2019-06-07T05:55:49.582Z,25.57
2019-06-07T05:58:18.096Z,27.63
2019-06-07T06:00:47.436Z,27.97
2019-06-07T06:03:16.555Z,27.77
2019-06-07T06:05:53.853Z,28.03
2019-06-07T06:08:15.322Z,26.73
2019-06-07T06:10:48.318Z,25.53
2019-06-07T06:13:14.011Z,24.60
2019-06-07T06:15:56.149Z,26.47
2019-06-07T06:18:13.107Z,28.12
2019-06-07T06:21:07.933Z,25.10
2019-06-07T06:23:11.896Z,25.57
2019-06-07T06:25:42.699Z,24.27
2019-06-07T06:28:12.655Z,24.35
2019-06-07T06:30:41.203Z,22.98
2019-06-07T06:33:30.751Z,23.55
2019-06-07T06:35:42.443Z,21.55
2019-06-07T06:38:11.682Z,22.48
2019-06-07T06:40:44.330Z,20.62
2019-06-07T06:43:10.378Z,21.35
2019-06-07T06:45:40.195Z,21.87
2019-06-07T06:48:08.977Z,22.35
2019-06-07T06:50:38.713Z,23.60
2019-06-07T06:53:07.605Z,21.95
2019-06-07T06:55:36.242Z,21.15
2019-06-07T06:58:04.857Z,21.12
2019-06-07T07:00:58.853Z,21.62
2019-06-07T07:03:55.999Z,22.52
2019-06-07T07:05:54.676Z,22.80
2019-06-07T07:08:21.307Z,21.45
2019-06-07T07:10:53.226Z,19.25
2019-06-07T07:13:20.070Z,20.88
2019-06-07T07:15:51.766Z,19.62
2019-06-07T07:18:18.969Z,20.72
2019-06-07T07:20:48.364Z,20.30
2019-06-07T07:23:17.614Z,19.37
2019-06-07T07:25:51.191Z,20.60
2019-06-07T07:28:16.382Z,20.65
2019-06-07T07:30:55.297Z,23.35
2019-06-07T07:33:21.205Z,17.02
2019-06-07T07:36:11.035Z,16.48
2019-06-07T07:38:20.654Z,17.00
2019-06-07T07:41:01.888Z,18.32
2019-06-07T07:43:19.339Z,19.02
2019-06-07T07:45:57.304Z,16.27
2019-06-07T07:48:18.542Z,16.50
2019-06-07T07:50:49.762Z,16.60
2019-06-07T07:53:17.737Z,14.85
2019-06-07T07:55:50.455Z,18.65
2019-06-07T07:58:16.456Z,19.15
2019-06-07T08:01:00.261Z,17.60
2019-06-07T08:03:15.083Z,15.70
2019-06-07T08:05:45.639Z,15.72
2019-06-07T08:08:13.706Z,15.35
2019-06-07T08:10:42.210Z,17.87
2019-06-07T08:13:27.655Z,17.87
2019-06-07T08:15:40.964Z,17.70
2019-06-07T08:18:09.501Z,15.00
2019-06-07T08:20:37.934Z,15.15
2019-06-07T08:23:06.525Z,16.52
2019-06-07T08:25:35.120Z,14.53
2019-06-07T08:28:03.726Z,15.98
2019-06-07T08:30:49.855Z,17.23
2019-06-07T08:33:24.642Z,16.02
2019-06-07T08:40:32.960Z,14.28
2019-06-07T08:43:15.234Z,18.27
2019-06-07T08:45:31.674Z,14.45
2019-06-07T08:48:05.413Z,17.25
2019-06-07T08:50:30.399Z,14.65
2019-06-07T08:53:10.638Z,15.95
2019-06-07T08:55:29.074Z,18.32
2019-06-07T08:58:02.239Z,16.77
2019-06-07T09:00:46.965Z,17.37
2019-06-07T09:03:03.460Z,19.55
2019-06-07T09:05:29.278Z,18.37
2019-06-07T09:08:21.589Z,18.73
2019-06-07T09:10:28.063Z,17.37
2019-06-07T09:13:03.078Z,16.70
2019-06-07T09:15:26.735Z,16.10
2019-06-07T09:18:34.862Z,17.17
2019-06-07T09:20:36.900Z,16.57
2019-06-07T09:23:06.186Z,15.35
2019-06-07T09:25:28.825Z,17.73
2019-06-07T09:28:00.559Z,16.55
2019-06-07T09:30:39.648Z,15.80
2019-06-07T09:33:09.082Z,16.37
2019-06-07T09:35:38.943Z,17.82
2019-06-07T09:38:23.261Z,16.62
2019-06-07T09:40:38.041Z,15.35
2019-06-07T09:43:54.252Z,15.68
2019-06-07T09:45:37.296Z,16.80
2019-06-07T09:48:13.389Z,14.03
2019-06-07T09:50:39.661Z,16.48
2019-06-07T09:53:20.867Z,17.87
2019-06-07T09:55:38.423Z,17.27
2019-06-07T09:58:47.763Z,15.35
2019-06-07T10:00:41.594Z,15.23
2019-06-07T10:03:17.799Z,16.90
2019-06-07T10:05:37.494Z,15.83
2019-06-07T10:08:25.638Z,16.27
2019-06-07T10:10:36.192Z,15.15
2019-06-07T10:13:06.494Z,14.07
2019-06-07T10:15:35.087Z,17.35
2019-06-07T10:18:04.798Z,15.95
2019-06-07T10:20:33.442Z,14.53
2019-06-07T10:23:03.563Z,12.37
2019-06-07T10:25:32.297Z,16.77
2019-06-07T10:28:01.837Z,14.60
2019-06-07T10:30:30.626Z,14.98
2019-06-07T10:32:59.994Z,14.73
2019-06-07T10:35:29.042Z,13.48
2019-06-07T10:37:58.245Z,13.72
2019-06-07T10:40:26.781Z,13.83
2019-06-07T10:42:55.228Z,11.90
2019-06-07T10:45:23.767Z,14.68
2019-06-07T10:47:52.226Z,15.80
2019-06-07T10:50:21.720Z,12.82
2019-06-07T10:52:50.223Z,12.50
2019-06-07T10:55:18.803Z,13.58
2019-06-07T10:57:47.247Z,13.70
2019-06-07T11:00:17.770Z,12.60
2019-06-07T11:02:46.233Z,13.70
2019-06-07T11:05:15.050Z,12.55
2019-06-07T11:07:43.480Z,14.60
2019-06-07T11:10:18.857Z,14.13
2019-06-07T11:12:42.231Z,14.15
2019-06-07T11:15:11.175Z,14.47
2019-06-07T11:17:39.650Z,12.25
2019-06-07T11:20:10.237Z,14.70
2019-06-07T11:22:38.879Z,11.50
2019-06-07T11:25:09.041Z,10.48
2019-06-07T11:27:37.932Z,10.78
2019-06-07T11:30:08.309Z,10.20
2019-06-07T11:32:37.142Z,10.40
2019-06-07T11:35:08.196Z,10.25
2019-06-07T11:37:37.054Z,9.90
2019-06-07T11:40:27.859Z,11.68
2019-06-07T11:42:40.893Z,10.98
2019-06-07T11:45:10.542Z,11.28
2019-06-07T11:47:39.718Z,10.00
2019-06-07T11:50:09.449Z,11.18
2019-06-07T11:52:38.673Z,10.60
2019-06-07T11:55:11.326Z,12.47
2019-06-07T11:57:40.140Z,9.48
2019-06-07T12:00:14.030Z,10.30
2019-06-07T12:02:42.938Z,11.57
2019-06-07T12:05:16.163Z,12.13
2019-06-07T12:07:42.447Z,10.88
2019-06-07T12:10:12.587Z,9.50
2019-06-07T12:12:41.215Z,8.75
2019-06-07T12:15:10.963Z,10.95
2019-06-07T12:17:39.594Z,9.58
2019-06-07T12:20:10.767Z,8.10
2019-06-07T12:22:39.235Z,9.13
2019-06-07T12:25:10.401Z,9.83
2019-06-07T12:27:39.443Z,8.70
2019-06-07T12:30:17.500Z,7.97
2019-06-07T12:32:39.772Z,8.55
2019-06-07T12:35:08.376Z,12.43
2019-06-07T12:37:43.855Z,9.18
2019-06-07T12:40:08.729Z,10.90
2019-06-07T12:42:37.524Z,10.25
2019-06-07T12:45:07.502Z,6.95
2019-06-07T12:47:36.058Z,10.05
2019-06-07T12:50:06.744Z,9.53
2019-06-07T12:52:35.320Z,6.60
2019-06-07T12:55:06.042Z,9.43
2019-06-07T12:57:34.477Z,9.93
2019-06-07T13:00:04.227Z,9.30
2019-06-07T13:02:32.659Z,9.73
2019-06-07T13:05:04.519Z,10.48
2019-06-07T13:07:31.317Z,7.55
2019-06-07T13:09:59.857Z,8.58
2019-06-07T13:12:28.889Z,6.87
2019-06-07T13:14:57.401Z,7.33
2019-06-07T13:17:25.922Z,7.92
2019-06-07T13:19:54.391Z,9.20
2019-06-07T13:22:22.829Z,9.45
2019-06-07T13:24:51.291Z,7.58
2019-06-07T13:27:20.354Z,10.88
2019-06-07T13:29:48.976Z,8.08
2019-06-07T13:32:17.509Z,10.48
2019-06-07T13:34:45.961Z,11.18
2019-06-07T13:37:14.434Z,10.43
2019-06-07T13:39:43.719Z,10.15
2019-06-07T13:42:12.150Z,10.93
2019-06-07T13:44:40.620Z,8.38
2019-06-07T13:47:09.055Z,8.90
2019-06-07T13:49:37.514Z,10.75
2019-06-07T13:52:06.120Z,8.90
2019-06-07T13:54:34.959Z,9.83
2019-06-07T13:57:03.457Z,10.10
2019-06-07T13:59:31.982Z,8.60
2019-06-07T14:02:00.428Z,11.48
2019-06-07T14:04:29.147Z,9.83
2019-06-07T14:06:57.677Z,9.15
2019-06-07T14:09:27.490Z,8.78
2019-06-07T14:11:56.166Z,10.38
2019-06-07T14:14:26.608Z,8.13
2019-06-07T14:16:54.890Z,8.85
2019-06-07T14:19:24.459Z,7.50
2019-06-07T14:21:53.202Z,8.90
2019-06-07T14:24:22.823Z,7.95
2019-06-07T14:27:06.963Z,7.58
2019-06-07T14:29:38.653Z,5.97
2019-06-07T14:32:13.303Z,7.83
2019-06-07T14:34:43.307Z,9.18
2019-06-07T14:37:11.771Z,10.25
2019-06-07T14:39:40.456Z,9.03
2019-06-07T14:42:10.501Z,9.58
2019-06-07T14:44:39.138Z,9.48
2019-06-07T14:47:07.607Z,11.63
2019-06-07T14:49:36.055Z,9.88
2019-06-07T14:52:04.706Z,8.93
2019-06-07T14:54:36.224Z,8.43
2019-06-07T14:57:03.742Z,10.23
2019-06-07T14:59:32.893Z,7.62
2019-06-07T15:02:01.460Z,7.85
2019-06-07T15:04:30.747Z,7.97
2019-06-07T15:06:59.351Z,9.95
2019-06-07T15:09:29.067Z,9.45
2019-06-07T15:11:57.735Z,7.90
2019-06-07T15:14:27.313Z,11.20
2019-06-07T15:16:55.991Z,11.30
2019-06-07T15:19:24.512Z,8.35
2019-06-07T15:21:52.963Z,8.88
2019-06-07T15:24:21.470Z,7.42
2019-06-07T15:26:49.951Z,10.05
2019-06-07T15:29:18.444Z,6.80
2019-06-07T15:31:46.884Z,12.07
2019-06-07T15:34:15.320Z,9.25
2019-06-07T15:36:43.777Z,7.55
2019-06-07T15:39:12.227Z,9.93
2019-06-07T15:41:40.757Z,11.18
2019-06-07T15:44:09.199Z,8.60
2019-06-07T15:46:38.016Z,8.30
2019-06-07T15:49:06.577Z,9.38
2019-06-07T15:51:36.504Z,9.30
2019-06-07T15:54:05.753Z,8.95
2019-06-07T15:56:34.692Z,9.03
2019-06-07T15:59:03.358Z,10.98
2019-06-07T16:01:33.321Z,8.73
2019-06-07T16:04:02.431Z,9.63
2019-06-07T16:06:34.217Z,10.35
2019-06-07T16:09:03.117Z,10.93
2019-06-07T16:11:32.778Z,12.33
2019-06-07T16:14:01.355Z,11.03
2019-06-07T16:16:29.830Z,8.23
2019-06-07T16:18:58.397Z,7.72
2019-06-07T16:21:27.228Z,9.73
2019-06-07T16:23:55.739Z,10.00
2019-06-07T16:26:25.470Z,11.03
2019-06-07T16:28:57.187Z,7.65
2019-06-07T16:31:24.166Z,8.58
2019-06-07T16:33:52.637Z,9.10
2019-06-07T16:36:21.079Z,11.05
2019-06-07T16:38:49.550Z,8.15
2019-06-07T16:41:18.049Z,10.90
2019-06-07T16:43:46.496Z,10.13
2019-06-07T16:46:14.962Z,8.60
2019-06-07T16:48:43.408Z,11.35
2019-06-07T16:51:11.892Z,10.00
2019-06-07T16:53:40.456Z,9.45
2019-06-07T16:56:08.995Z,12.23
2019-06-07T16:58:37.848Z,12.37
2019-06-07T17:01:06.538Z,11.40
2019-06-07T17:03:35.115Z,9.05
2019-06-07T17:06:03.763Z,12.20
2019-06-07T17:08:32.385Z,9.43
2019-06-07T17:11:00.939Z,9.68
2019-06-07T17:13:33.450Z,9.60
2019-06-07T17:15:59.642Z,10.65
2019-06-07T17:18:28.103Z,11.18
2019-06-07T17:20:56.615Z,11.57
2019-06-07T17:23:25.102Z,13.03
2019-06-07T17:25:53.533Z,10.93
2019-06-07T17:28:22.059Z,9.55
2019-06-07T17:30:50.512Z,9.05
2019-06-07T17:33:19.041Z,11.88
2019-06-07T17:35:48.548Z,11.03
2019-06-07T17:38:17.140Z,11.45
2019-06-07T17:40:47.001Z,13.00
2019-06-07T17:43:15.930Z,12.75
2019-06-07T17:45:45.396Z,12.90
2019-06-07T17:48:14.052Z,10.53
2019-06-07T17:50:43.732Z,10.75
2019-06-07T17:53:14.675Z,11.18
2019-06-07T17:55:44.113Z,14.83
2019-06-07T17:58:12.842Z,12.25
2019-06-07T18:00:53.087Z,11.22
2019-06-07T18:03:22.236Z,10.70
2019-06-07T18:05:51.534Z,11.83
2019-06-07T18:08:19.970Z,12.28
2019-06-07T18:10:49.912Z,11.68
2019-06-07T18:13:18.634Z,11.55
2019-06-07T18:15:52.939Z,10.82
2019-06-07T18:18:18.971Z,14.43
2019-06-07T18:20:47.475Z,11.63
2019-06-07T18:23:16.465Z,11.93
2019-06-07T18:25:46.326Z,15.55
2019-06-07T18:28:15.094Z,14.28
2019-06-07T18:30:43.726Z,12.85
2019-06-07T18:33:14.107Z,10.75
2019-06-07T18:35:42.680Z,9.60
2019-06-07T18:38:11.291Z,10.68
2019-06-07T18:40:41.273Z,13.08
2019-06-07T18:43:09.776Z,15.75
2019-06-07T18:45:38.393Z,14.65
2019-06-07T18:48:07.218Z,15.70
2019-06-07T18:50:36.208Z,10.58
2019-06-07T18:53:04.925Z,12.23
2019-06-07T18:55:33.368Z,7.62
2019-06-07T18:58:01.920Z,12.15
2019-06-07T19:00:30.921Z,13.20
2019-06-07T19:02:59.390Z,15.80
2019-06-07T19:05:27.850Z,14.45
2019-06-07T19:07:56.668Z,17.40
2019-06-07T19:10:26.730Z,14.28
2019-06-07T19:12:55.364Z,14.03
2019-06-07T19:15:25.938Z,13.83
2019-06-07T19:17:54.459Z,16.77
2019-06-07T19:20:23.417Z,11.45
2019-06-07T19:22:52.093Z,12.40
2019-06-07T19:25:20.762Z,13.30
2019-06-07T19:27:50.645Z,12.07
2019-06-07T19:30:19.906Z,11.00
2019-06-07T19:32:49.730Z,9.70
2019-06-07T19:35:19.648Z,14.15
2019-06-07T19:37:48.109Z,11.33
2019-06-07T19:40:17.987Z,11.30
2019-06-07T19:42:46.478Z,9.93
2019-06-07T19:45:31.638Z,8.65
2019-06-07T19:47:45.470Z,6.80
2019-06-07T19:50:14.481Z,10.98
2019-06-07T19:52:42.941Z,7.92
2019-06-07T19:55:11.946Z,6.15
2019-06-07T19:57:40.410Z,9.90
2019-06-07T20:00:14.147Z,7.30
2019-06-07T20:02:39.826Z,7.58
2019-06-07T20:05:11.370Z,6.28
2019-06-07T20:07:40.344Z,8.68
2019-06-07T20:10:08.878Z,6.58
2019-06-07T20:12:37.350Z,7.42
2019-06-07T20:15:27.227Z,6.37
2019-06-07T20:17:39.125Z,8.40
2019-06-07T20:20:09.992Z,6.22
2019-06-07T20:22:38.424Z,7.55
2019-06-07T20:25:07.715Z,6.42
2019-06-07T20:27:36.150Z,8.05
2019-06-07T20:30:11.965Z,6.03
2019-06-07T20:32:40.431Z,7.35
2019-06-07T20:35:10.203Z,6.65
2019-06-07T20:37:38.664Z,6.47
2019-06-07T20:40:22.963Z,7.00
2019-06-07T20:42:38.839Z,8.20
2019-06-07T20:45:08.930Z,4.70
2019-06-07T20:47:37.451Z,6.78
2019-06-07T20:50:08.643Z,7.80
2019-06-07T20:52:37.546Z,5.20
2019-06-07T20:55:09.449Z,4.25
2019-06-07T20:57:38.269Z,9.90
2019-06-07T21:00:14.257Z,9.60
2019-06-07T21:02:38.636Z,9.25
2019-06-07T21:05:07.758Z,5.75
2019-06-07T21:07:36.336Z,9.63
2019-06-07T21:10:08.593Z,8.00
2019-06-07T21:12:38.735Z,5.47
2019-06-07T21:15:12.110Z,9.83
2019-06-07T21:17:38.519Z,4.28
2019-06-07T21:20:11.691Z,7.70
2019-06-07T21:22:38.342Z,7.17
2019-06-07T21:25:09.248Z,7.20
2019-06-07T21:27:37.901Z,4.53
2019-06-07T21:30:11.619Z,5.95
2019-06-07T21:32:40.328Z,8.65
2019-06-07T21:35:10.136Z,8.15
2019-06-07T21:37:38.864Z,5.95
2019-06-07T21:40:10.184Z,7.78
2019-06-07T21:42:38.883Z,4.83
2019-06-07T21:45:09.904Z,4.67
2019-06-07T21:47:38.855Z,5.40
2019-06-07T21:50:10.776Z,3.33
2019-06-07T21:52:39.507Z,6.22
2019-06-07T21:55:09.150Z,4.20
2019-06-07T21:57:38.180Z,6.78
2019-06-07T22:00:11.498Z,5.60
2019-06-07T22:02:40.316Z,7.10
2019-06-07T22:05:09.620Z,6.72
2019-06-07T22:07:38.338Z,6.10
2019-06-07T22:10:08.006Z,4.85
2019-06-07T22:12:36.842Z,6.83
2019-06-07T22:15:29.161Z,4.87
2019-06-07T22:17:40.230Z,7.15
2019-06-07T22:20:10.817Z,5.35
2019-06-07T22:22:39.781Z,6.27
2019-06-07T22:25:09.193Z,5.57
2019-06-07T22:27:37.862Z,9.00
2019-06-07T22:30:08.452Z,4.60
2019-06-07T22:32:37.209Z,7.05
2019-06-07T22:35:06.768Z,5.37
2019-06-07T22:37:35.667Z,6.80
2019-06-07T22:40:08.547Z,4.67
2019-06-07T22:42:37.586Z,4.40
2019-06-07T22:45:07.970Z,4.95
2019-06-07T22:47:36.804Z,3.03
2019-06-07T22:50:10.690Z,4.87
2019-06-07T22:52:39.614Z,3.60
2019-06-07T22:55:10.098Z,4.28
2019-06-07T22:57:52.671Z,5.50
